sensor_id;sensor_type;location;lat;lon;timestamp;P1;durP1;ratioP1;P2;durP2;ratioP2
19861;SDS011;10093;48.148;8.542;2023-10-13T00:01:53;9.32;;;2.90;;
19861;SDS011;10093;48.148;8.542;2023-10-13T00:04:19;4.47;;;2.08;;
19861;SDS011;10093;48.148;8.542;2023-10-13T00:06:50;5.78;;;2.40;;
19861;SDS011;10093;48.148;8.542;2023-10-13T00:09:16;7.40;;;2.20;;
19861;SDS011;10093;48.148;8.542;2023-10-13T00:11:44;6.70;;;2.20;;
19861;SDS011;10093;48.148;8.542;2023-10-13T00:14:11;8.75;;;2.50;;
19861;SDS011;10093;48.148;8.542;2023-10-13T00:16:40;9.32;;;2.17;;
19861;SDS011;10093;48.148;8.542;2023-10-13T00:19:07;10.95;;;2.45;;
19861;SDS011;10093;48.148;8.542;2023-10-13T00:21:35;6.07;;;2.33;;
19861;SDS011;10093;48.148;8.542;2023-10-13T00:24:01;7.10;;;2.70;;
19861;SDS011;10093;48.148;8.542;2023-10-13T00:26:30;10.65;;;2.90;;
19861;SDS011;10093;48.148;8.542;2023-10-13T00:29:01;5.43;;;2.80;;
19861;SDS011;10093;48.148;8.542;2023-10-13T00:31:34;7.65;;;2.45;;
19861;SDS011;10093;48.148;8.542;2023-10-13T00:34:11;7.47;;;2.47;;
19861;SDS011;10093;48.148;8.542;2023-10-13T00:36:40;7.95;;;2.63;;
19861;SDS011;10093;48.148;8.542;2023-10-13T00:39:26;9.85;;;2.92;;
19861;SDS011;10093;48.148;8.542;2023-10-13T00:41:53;7.65;;;2.65;;
19861;SDS011;10093;48.148;8.542;2023-10-13T00:44:23;7.03;;;2.75;;
19861;SDS011;10093;48.148;8.542;2023-10-13T00:47:02;7.97;;;2.70;;
19861;SDS011;10093;48.148;8.542;2023-10-13T00:49:28;5.10;;;2.58;;
19861;SDS011;10093;48.148;8.542;2023-10-13T00:51:55;8.85;;;2.25;;
19861;SDS011;10093;48.148;8.542;2023-10-13T00:54:22;7.43;;;2.78;;
19861;SDS011;10093;48.148;8.542;2023-10-13T00:56:52;8.18;;;2.83;;
19861;SDS011;10093;48.148;8.542;2023-10-13T00:59:32;7.30;;;2.55;;
19861;SDS011;10093;48.148;8.542;2023-10-13T01:02:01;6.40;;;2.90;;
19861;SDS011;10093;48.148;8.542;2023-10-13T01:04:47;6.53;;;2.88;;
19861;SDS011;10093;48.148;8.542;2023-10-13T01:07:13;8.50;;;2.67;;
19861;SDS011;10093;48.148;8.542;2023-10-13T01:09:44;5.40;;;2.88;;
19861;SDS011;10093;48.148;8.542;2023-10-13T01:12:12;7.72;;;3.00;;
19861;SDS011;10093;48.148;8.542;2023-10-13T01:14:38;6.43;;;2.80;;
19861;SDS011;10093;48.148;8.542;2023-10-13T01:17:03;8.27;;;3.17;;
19861;SDS011;10093;48.148;8.542;2023-10-13T01:19:29;9.27;;;2.92;;
19861;SDS011;10093;48.148;8.542;2023-10-13T01:21:55;6.13;;;2.92;;
19861;SDS011;10093;48.148;8.542;2023-10-13T01:24:31;4.78;;;3.08;;
19861;SDS011;10093;48.148;8.542;2023-10-13T01:27:01;6.53;;;2.78;;
19861;SDS011;10093;48.148;8.542;2023-10-13T01:29:51;4.90;;;2.72;;
19861;SDS011;10093;48.148;8.542;2023-10-13T01:32:23;5.95;;;2.47;;
19861;SDS011;10093;48.148;8.542;2023-10-13T01:34:49;5.80;;;2.78;;
19861;SDS011;10093;48.148;8.542;2023-10-13T01:37:20;8.35;;;3.08;;
19861;SDS011;10093;48.148;8.542;2023-10-13T01:39:46;6.20;;;2.80;;
19861;SDS011;10093;48.148;8.542;2023-10-13T01:42:14;5.38;;;2.30;;
19861;SDS011;10093;48.148;8.542;2023-10-13T01:44:45;7.38;;;2.63;;
19861;SDS011;10093;48.148;8.542;2023-10-13T01:47:10;5.75;;;2.63;;
19861;SDS011;10093;48.148;8.542;2023-10-13T01:49:37;10.43;;;3.15;;
19861;SDS011;10093;48.148;8.542;2023-10-13T01:52:08;10.85;;;3.50;;
19861;SDS011;10093;48.148;8.542;2023-10-13T01:54:36;6.20;;;3.38;;
19861;SDS011;10093;48.148;8.542;2023-10-13T01:57:05;7.22;;;3.10;;
19861;SDS011;10093;48.148;8.542;2023-10-13T01:59:39;6.35;;;3.47;;
19861;SDS011;10093;48.148;8.542;2023-10-13T02:02:11;10.88;;;3.50;;
19861;SDS011;10093;48.148;8.542;2023-10-13T02:04:38;6.35;;;3.08;;
19861;SDS011;10093;48.148;8.542;2023-10-13T02:07:14;7.30;;;2.97;;
19861;SDS011;10093;48.148;8.542;2023-10-13T02:09:40;7.18;;;3.28;;
19861;SDS011;10093;48.148;8.542;2023-10-13T02:12:08;5.82;;;3.67;;
19861;SDS011;10093;48.148;8.542;2023-10-13T02:14:34;6.78;;;3.53;;
19861;SDS011;10093;48.148;8.542;2023-10-13T02:17:02;9.75;;;3.85;;
19861;SDS011;10093;48.148;8.542;2023-10-13T02:19:41;8.90;;;3.70;;
19861;SDS011;10093;48.148;8.542;2023-10-13T02:22:11;7.63;;;3.47;;
19861;SDS011;10093;48.148;8.542;2023-10-13T02:24:49;9.27;;;2.92;;
19861;SDS011;10093;48.148;8.542;2023-10-13T02:27:17;7.53;;;3.42;;
19861;SDS011;10093;48.148;8.542;2023-10-13T02:29:42;7.22;;;3.45;;
19861;SDS011;10093;48.148;8.542;2023-10-13T02:32:11;7.10;;;3.75;;
19861;SDS011;10093;48.148;8.542;2023-10-13T02:34:47;13.20;;;3.45;;
19861;SDS011;10093;48.148;8.542;2023-10-13T02:37:12;5.57;;;3.50;;
19861;SDS011;10093;48.148;8.542;2023-10-13T02:39:38;10.77;;;3.50;;
19861;SDS011;10093;48.148;8.542;2023-10-13T02:42:08;8.40;;;3.38;;
19861;SDS011;10093;48.148;8.542;2023-10-13T02:44:49;9.23;;;4.15;;
19861;SDS011;10093;48.148;8.542;2023-10-13T02:47:16;5.93;;;3.75;;
19861;SDS011;10093;48.148;8.542;2023-10-13T02:49:43;8.40;;;3.78;;
19861;SDS011;10093;48.148;8.542;2023-10-13T02:52:11;7.03;;;3.90;;
19861;SDS011;10093;48.148;8.542;2023-10-13T02:54:38;6.20;;;3.90;;
19861;SDS011;10093;48.148;8.542;2023-10-13T02:57:16;9.38;;;3.92;;
19861;SDS011;10093;48.148;8.542;2023-10-13T02:59:42;10.35;;;4.40;;
19861;SDS011;10093;48.148;8.542;2023-10-13T03:02:12;7.00;;;4.70;;
19861;SDS011;10093;48.148;8.542;2023-10-13T03:04:48;7.18;;;4.72;;
19861;SDS011;10093;48.148;8.542;2023-10-13T03:07:14;8.43;;;4.13;;
19861;SDS011;10093;48.148;8.542;2023-10-13T03:09:51;6.32;;;4.25;;
19861;SDS011;10093;48.148;8.542;2023-10-13T03:12:20;9.50;;;4.15;;
19861;SDS011;10093;48.148;8.542;2023-10-13T03:14:46;9.10;;;4.38;;
19861;SDS011;10093;48.148;8.542;2023-10-13T03:17:13;8.77;;;3.70;;
19861;SDS011;10093;48.148;8.542;2023-10-13T03:19:42;8.07;;;3.50;;
19861;SDS011;10093;48.148;8.542;2023-10-13T03:22:13;8.90;;;3.88;;
19861;SDS011;10093;48.148;8.542;2023-10-13T03:24:41;9.68;;;3.45;;
19861;SDS011;10093;48.148;8.542;2023-10-13T03:27:17;6.70;;;3.75;;
19861;SDS011;10093;48.148;8.542;2023-10-13T03:29:48;9.57;;;3.33;;
19861;SDS011;10093;48.148;8.542;2023-10-13T03:32:19;8.48;;;3.80;;
19861;SDS011;10093;48.148;8.542;2023-10-13T03:34:46;7.63;;;3.70;;
19861;SDS011;10093;48.148;8.542;2023-10-13T03:37:32;8.15;;;3.35;;
19861;SDS011;10093;48.148;8.542;2023-10-13T03:46:03;7.18;;;3.42;;
19861;SDS011;10093;48.148;8.542;2023-10-13T03:48:33;11.68;;;3.55;;
19861;SDS011;10093;48.148;8.542;2023-10-13T03:51:05;8.15;;;3.90;;
19861;SDS011;10093;48.148;8.542;2023-10-13T03:53:35;10.20;;;4.15;;
19861;SDS011;10093;48.148;8.542;2023-10-13T03:56:05;12.48;;;3.92;;
19861;SDS011;10093;48.148;8.542;2023-10-13T03:58:37;10.38;;;3.50;;
19861;SDS011;10093;48.148;8.542;2023-10-13T04:01:07;7.75;;;3.40;;
19861;SDS011;10093;48.148;8.542;2023-10-13T04:03:34;9.95;;;4.03;;
19861;SDS011;10093;48.148;8.542;2023-10-13T04:06:01;7.60;;;3.75;;
19861;SDS011;10093;48.148;8.542;2023-10-13T04:08:33;10.65;;;4.55;;
19861;SDS011;10093;48.148;8.542;2023-10-13T04:11:08;8.30;;;4.28;;
19861;SDS011;10093;48.148;8.542;2023-10-13T04:13:52;9.52;;;4.50;;
19861;SDS011;10093;48.148;8.542;2023-10-13T04:16:36;9.60;;;3.80;;
19861;SDS011;10093;48.148;8.542;2023-10-13T04:19:03;7.95;;;3.60;;
19861;SDS011;10093;48.148;8.542;2023-10-13T04:21:33;14.95;;;4.40;;
19861;SDS011;10093;48.148;8.542;2023-10-13T04:24:08;8.95;;;3.63;;
19861;SDS011;10093;48.148;8.542;2023-10-13T04:26:49;9.45;;;3.70;;
19861;SDS011;10093;48.148;8.542;2023-10-13T04:32:15;10.95;;;3.35;;
19861;SDS011;10093;48.148;8.542;2023-10-13T04:34:55;8.63;;;3.22;;
19861;SDS011;10093;48.148;8.542;2023-10-13T04:37:44;9.25;;;3.80;;
19861;SDS011;10093;48.148;8.542;2023-10-13T04:40:33;11.50;;;4.15;;
19861;SDS011;10093;48.148;8.542;2023-10-13T04:43:01;7.20;;;3.60;;
19861;SDS011;10093;48.148;8.542;2023-10-13T04:45:42;9.52;;;3.63;;
19861;SDS011;10093;48.148;8.542;2023-10-13T04:48:18;14.32;;;3.83;;
19861;SDS011;10093;48.148;8.542;2023-10-13T04:50:47;6.70;;;3.83;;
19861;SDS011;10093;48.148;8.542;2023-10-13T04:53:18;8.48;;;3.78;;
19861;SDS011;10093;48.148;8.542;2023-10-13T04:55:58;9.48;;;3.35;;
19861;SDS011;10093;48.148;8.542;2023-10-13T04:58:25;9.90;;;4.07;;
19861;SDS011;10093;48.148;8.542;2023-10-13T05:00:59;8.77;;;3.97;;
19861;SDS011;10093;48.148;8.542;2023-10-13T05:03:43;8.88;;;3.72;;
19861;SDS011;10093;48.148;8.542;2023-10-13T05:06:31;8.63;;;3.90;;
19861;SDS011;10093;48.148;8.542;2023-10-13T05:09:09;7.13;;;3.65;;
19861;SDS011;10093;48.148;8.542;2023-10-13T05:11:54;7.97;;;3.47;;
19861;SDS011;10093;48.148;8.542;2023-10-13T05:14:38;10.15;;;3.35;;
19861;SDS011;10093;48.148;8.542;2023-10-13T05:17:23;9.15;;;3.30;;
19861;SDS011;10093;48.148;8.542;2023-10-13T05:20:07;9.75;;;3.78;;
19861;SDS011;10093;48.148;8.542;2023-10-13T05:22:52;10.32;;;3.50;;
19861;SDS011;10093;48.148;8.542;2023-10-13T05:25:37;13.57;;;3.53;;
19861;SDS011;10093;48.148;8.542;2023-10-13T05:28:22;10.10;;;3.90;;
19861;SDS011;10093;48.148;8.542;2023-10-13T05:31:07;10.82;;;3.58;;
19861;SDS011;10093;48.148;8.542;2023-10-13T05:33:51;12.45;;;4.15;;
19861;SDS011;10093;48.148;8.542;2023-10-13T05:36:36;8.60;;;3.47;;
19861;SDS011;10093;48.148;8.542;2023-10-13T05:39:20;8.23;;;3.13;;
19861;SDS011;10093;48.148;8.542;2023-10-13T05:42:04;5.63;;;3.60;;
19861;SDS011;10093;48.148;8.542;2023-10-13T05:44:49;12.88;;;3.63;;
19861;SDS011;10093;48.148;8.542;2023-10-13T05:47:33;14.82;;;3.90;;
19861;SDS011;10093;48.148;8.542;2023-10-13T05:50:01;9.93;;;3.78;;
19861;SDS011;10093;48.148;8.542;2023-10-13T05:52:38;8.15;;;3.55;;
19861;SDS011;10093;48.148;8.542;2023-10-13T05:55:19;8.35;;;3.17;;
19861;SDS011;10093;48.148;8.542;2023-10-13T05:58:08;9.00;;;3.63;;
19861;SDS011;10093;48.148;8.542;2023-10-13T06:00:53;7.93;;;4.05;;
19861;SDS011;10093;48.148;8.542;2023-10-13T06:03:37;11.25;;;3.60;;
19861;SDS011;10093;48.148;8.542;2023-10-13T06:06:21;8.00;;;3.60;;
19861;SDS011;10093;48.148;8.542;2023-10-13T06:09:05;9.07;;;3.40;;
19861;SDS011;10093;48.148;8.542;2023-10-13T06:11:49;10.90;;;3.45;;
19861;SDS011;10093;48.148;8.542;2023-10-13T06:14:33;8.02;;;3.58;;
19861;SDS011;10093;48.148;8.542;2023-10-13T06:17:17;7.95;;;3.65;;
19861;SDS011;10093;48.148;8.542;2023-10-13T06:20:01;11.80;;;3.58;;
19861;SDS011;10093;48.148;8.542;2023-10-13T06:22:48;6.57;;;2.85;;
19861;SDS011;10093;48.148;8.542;2023-10-13T06:25:33;11.65;;;3.20;;
19861;SDS011;10093;48.148;8.542;2023-10-13T06:28:18;10.77;;;3.50;;
19861;SDS011;10093;48.148;8.542;2023-10-13T06:31:04;9.73;;;2.78;;
19861;SDS011;10093;48.148;8.542;2023-10-13T06:33:35;9.55;;;2.75;;
19861;SDS011;10093;48.148;8.542;2023-10-13T06:36:10;8.27;;;3.50;;
19861;SDS011;10093;48.148;8.542;2023-10-13T06:38:36;12.77;;;3.25;;
19861;SDS011;10093;48.148;8.542;2023-10-13T06:41:02;11.95;;;3.30;;
19861;SDS011;10093;48.148;8.542;2023-10-13T06:43:34;11.43;;;3.10;;
19861;SDS011;10093;48.148;8.542;2023-10-13T06:46:05;7.60;;;2.92;;
19861;SDS011;10093;48.148;8.542;2023-10-13T06:48:32;7.50;;;2.78;;
19861;SDS011;10093;48.148;8.542;2023-10-13T06:51:00;11.20;;;2.83;;
19861;SDS011;10093;48.148;8.542;2023-10-13T06:53:32;11.00;;;2.92;;
19861;SDS011;10093;48.148;8.542;2023-10-13T06:56:05;8.40;;;3.08;;
19861;SDS011;10093;48.148;8.542;2023-10-13T06:58:32;9.23;;;2.75;;
19861;SDS011;10093;48.148;8.542;2023-10-13T07:00:57;12.27;;;2.92;;
19861;SDS011;10093;48.148;8.542;2023-10-13T07:03:24;13.93;;;2.85;;
19861;SDS011;10093;48.148;8.542;2023-10-13T07:05:50;5.95;;;2.80;;
19861;SDS011;10093;48.148;8.542;2023-10-13T07:08:17;7.68;;;2.65;;
19861;SDS011;10093;48.148;8.542;2023-10-13T07:13:14;5.63;;;2.65;;
19861;SDS011;10093;48.148;8.542;2023-10-13T07:15:42;12.45;;;2.53;;
19861;SDS011;10093;48.148;8.542;2023-10-13T07:18:14;8.95;;;2.53;;
19861;SDS011;10093;48.148;8.542;2023-10-13T07:20:43;9.05;;;2.60;;
19861;SDS011;10093;48.148;8.542;2023-10-13T07:23:10;9.20;;;3.05;;
19861;SDS011;10093;48.148;8.542;2023-10-13T07:25:42;8.88;;;2.72;;
19861;SDS011;10093;48.148;8.542;2023-10-13T07:28:16;6.10;;;2.20;;
19861;SDS011;10093;48.148;8.542;2023-10-13T07:30:42;7.43;;;2.53;;
19861;SDS011;10093;48.148;8.542;2023-10-13T07:33:15;6.18;;;2.33;;
19861;SDS011;10093;48.148;8.542;2023-10-13T07:35:45;7.07;;;2.58;;
19861;SDS011;10093;48.148;8.542;2023-10-13T07:38:15;6.35;;;2.70;;
19861;SDS011;10093;48.148;8.542;2023-10-13T07:40:42;9.55;;;2.90;;
19861;SDS011;10093;48.148;8.542;2023-10-13T07:43:15;10.25;;;2.53;;
19861;SDS011;10093;48.148;8.542;2023-10-13T07:45:46;9.02;;;2.42;;
19861;SDS011;10093;48.148;8.542;2023-10-13T07:48:15;8.52;;;2.58;;
19861;SDS011;10093;48.148;8.542;2023-10-13T07:50:45;8.35;;;2.13;;
19861;SDS011;10093;48.148;8.542;2023-10-13T07:53:12;8.15;;;2.25;;
19861;SDS011;10093;48.148;8.542;2023-10-13T07:55:47;6.80;;;2.50;;
19861;SDS011;10093;48.148;8.542;2023-10-13T07:58:14;7.32;;;2.30;;
19861;SDS011;10093;48.148;8.542;2023-10-13T08:00:39;8.52;;;2.10;;
19861;SDS011;10093;48.148;8.542;2023-10-13T08:03:11;10.00;;;2.10;;
19861;SDS011;10093;48.148;8.542;2023-10-13T08:05:43;16.38;;;2.28;;
19861;SDS011;10093;48.148;8.542;2023-10-13T08:08:29;5.75;;;2.05;;
19861;SDS011;10093;48.148;8.542;2023-10-13T08:11:03;8.30;;;2.10;;
19861;SDS011;10093;48.148;8.542;2023-10-13T08:13:47;6.75;;;1.67;;
19861;SDS011;10093;48.148;8.542;2023-10-13T08:16:23;8.25;;;1.73;;
19861;SDS011;10093;48.148;8.542;2023-10-13T08:18:54;6.97;;;2.35;;
19861;SDS011;10093;48.148;8.542;2023-10-13T08:21:19;10.05;;;2.40;;
19861;SDS011;10093;48.148;8.542;2023-10-13T08:23:49;9.30;;;2.10;;
19861;SDS011;10093;48.148;8.542;2023-10-13T08:26:18;6.47;;;2.08;;
19861;SDS011;10093;48.148;8.542;2023-10-13T08:29:03;7.43;;;2.95;;
19861;SDS011;10093;48.148;8.542;2023-10-13T08:31:51;9.05;;;2.22;;
19861;SDS011;10093;48.148;8.542;2023-10-13T08:34:36;6.32;;;1.90;;
19861;SDS011;10093;48.148;8.542;2023-10-13T08:37:31;5.47;;;1.50;;
19861;SDS011;10093;48.148;8.542;2023-10-13T08:40:01;10.10;;;2.05;;
19861;SDS011;10093;48.148;8.542;2023-10-13T08:42:28;5.85;;;2.10;;
19861;SDS011;10093;48.148;8.542;2023-10-13T08:45:25;9.23;;;2.10;;
19861;SDS011;10093;48.148;8.542;2023-10-13T08:47:53;12.15;;;2.08;;
19861;SDS011;10093;48.148;8.542;2023-10-13T08:50:42;10.25;;;2.10;;
19861;SDS011;10093;48.148;8.542;2023-10-13T08:53:27;5.97;;;1.90;;
19861;SDS011;10093;48.148;8.542;2023-10-13T08:55:58;6.47;;;2.22;;
19861;SDS011;10093;48.148;8.542;2023-10-13T08:58:39;8.20;;;1.63;;
19861;SDS011;10093;48.148;8.542;2023-10-13T09:01:19;6.53;;;1.95;;
19861;SDS011;10093;48.148;8.542;2023-10-13T09:04:05;16.63;;;2.28;;
19861;SDS011;10093;48.148;8.542;2023-10-13T09:06:44;8.05;;;1.65;;
19861;SDS011;10093;48.148;8.542;2023-10-13T09:09:30;4.95;;;2.00;;
19861;SDS011;10093;48.148;8.542;2023-10-13T09:14:56;10.40;;;1.90;;
19861;SDS011;10093;48.148;8.542;2023-10-13T09:17:22;8.65;;;1.95;;
19861;SDS011;10093;48.148;8.542;2023-10-13T09:20:01;10.18;;;1.77;;
19861;SDS011;10093;48.148;8.542;2023-10-13T09:22:51;11.55;;;1.95;;
19861;SDS011;10093;48.148;8.542;2023-10-13T09:25:27;8.43;;;2.08;;
19861;SDS011;10093;48.148;8.542;2023-10-13T09:28:01;6.88;;;1.80;;
19861;SDS011;10093;48.148;8.542;2023-10-13T09:33:13;10.57;;;1.75;;
19861;SDS011;10093;48.148;8.542;2023-10-13T09:36:14;3.58;;;1.60;;
19861;SDS011;10093;48.148;8.542;2023-10-13T09:38:42;5.25;;;1.95;;
19861;SDS011;10093;48.148;8.542;2023-10-13T09:41:28;8.40;;;2.35;;
19861;SDS011;10093;48.148;8.542;2023-10-13T09:43:57;5.15;;;1.55;;
19861;SDS011;10093;48.148;8.542;2023-10-13T09:46:25;14.82;;;1.98;;
19861;SDS011;10093;48.148;8.542;2023-10-13T09:49:14;10.73;;;2.20;;
19861;SDS011;10093;48.148;8.542;2023-10-13T09:51:48;5.82;;;1.73;;
19861;SDS011;10093;48.148;8.542;2023-10-13T09:54:17;8.35;;;1.98;;
19861;SDS011;10093;48.148;8.542;2023-10-13T09:56:53;8.82;;;1.88;;
19861;SDS011;10093;48.148;8.542;2023-10-13T09:59:35;12.50;;;1.92;;
19861;SDS011;10093;48.148;8.542;2023-10-13T10:02:18;7.03;;;2.20;;
19861;SDS011;10093;48.148;8.542;2023-10-13T10:04:53;7.50;;;1.90;;
19861;SDS011;10093;48.148;8.542;2023-10-13T10:07:27;7.90;;;2.35;;
19861;SDS011;10093;48.148;8.542;2023-10-13T10:10:00;6.68;;;1.85;;
19861;SDS011;10093;48.148;8.542;2023-10-13T10:18:01;7.10;;;1.50;;
19861;SDS011;10093;48.148;8.542;2023-10-13T10:20:36;8.45;;;1.70;;
19861;SDS011;10093;48.148;8.542;2023-10-13T10:23:06;7.85;;;2.08;;
19861;SDS011;10093;48.148;8.542;2023-10-13T10:25:39;12.23;;;1.90;;
19861;SDS011;10093;48.148;8.542;2023-10-13T10:28:09;8.07;;;2.03;;
19861;SDS011;10093;48.148;8.542;2023-10-13T10:30:40;7.32;;;2.03;;
19861;SDS011;10093;48.148;8.542;2023-10-13T10:33:08;10.25;;;1.75;;
19861;SDS011;10093;48.148;8.542;2023-10-13T10:35:44;12.07;;;2.25;;
19861;SDS011;10093;48.148;8.542;2023-10-13T10:38:12;15.77;;;2.38;;
19861;SDS011;10093;48.148;8.542;2023-10-13T10:41:01;6.40;;;1.85;;
19861;SDS011;10093;48.148;8.542;2023-10-13T10:43:30;7.25;;;1.98;;
19861;SDS011;10093;48.148;8.542;2023-10-13T10:48:43;9.77;;;2.00;;
19861;SDS011;10093;48.148;8.542;2023-10-13T10:51:10;6.93;;;1.70;;
19861;SDS011;10093;48.148;8.542;2023-10-13T10:53:46;13.93;;;2.22;;
19861;SDS011;10093;48.148;8.542;2023-10-13T10:56:14;7.88;;;1.80;;
19861;SDS011;10093;48.148;8.542;2023-10-13T10:59:10;8.95;;;1.92;;
19861;SDS011;10093;48.148;8.542;2023-10-13T11:01:45;11.85;;;2.28;;
19861;SDS011;10093;48.148;8.542;2023-10-13T11:04:17;7.93;;;1.90;;
19861;SDS011;10093;48.148;8.542;2023-10-13T11:09:26;6.07;;;1.80;;
19861;SDS011;10093;48.148;8.542;2023-10-13T11:11:56;5.97;;;1.77;;
19861;SDS011;10093;48.148;8.542;2023-10-13T11:14:42;11.80;;;1.95;;
19861;SDS011;10093;48.148;8.542;2023-10-13T11:17:18;6.22;;;1.45;;
19861;SDS011;10093;48.148;8.542;2023-10-13T11:20:12;7.18;;;1.80;;
19861;SDS011;10093;48.148;8.542;2023-10-13T11:22:45;7.32;;;1.60;;
19861;SDS011;10093;48.148;8.542;2023-10-13T11:25:20;6.30;;;1.60;;
19861;SDS011;10093;48.148;8.542;2023-10-13T11:27:54;5.03;;;1.75;;
19861;SDS011;10093;48.148;8.542;2023-10-13T11:30:21;3.85;;;1.25;;
19861;SDS011;10093;48.148;8.542;2023-10-13T11:33:07;11.27;;;2.03;;
19861;SDS011;10093;48.148;8.542;2023-10-13T11:35:37;4.05;;;1.50;;
19861;SDS011;10093;48.148;8.542;2023-10-13T11:38:21;5.18;;;1.75;;
19861;SDS011;10093;48.148;8.542;2023-10-13T11:40:55;2.83;;;1.60;;
19861;SDS011;10093;48.148;8.542;2023-10-13T11:46:09;6.80;;;1.70;;
19861;SDS011;10093;48.148;8.542;2023-10-13T11:48:38;5.70;;;1.80;;
19861;SDS011;10093;48.148;8.542;2023-10-13T11:51:07;5.93;;;1.88;;
19861;SDS011;10093;48.148;8.542;2023-10-13T11:53:34;3.38;;;1.60;;
19861;SDS011;10093;48.148;8.542;2023-10-13T11:56:01;6.28;;;1.70;;
19861;SDS011;10093;48.148;8.542;2023-10-13T11:58:33;8.82;;;2.10;;
19861;SDS011;10093;48.148;8.542;2023-10-13T12:00:59;5.47;;;1.80;;
19861;SDS011;10093;48.148;8.542;2023-10-13T12:06:25;9.53;;;2.13;;
19861;SDS011;10093;48.148;8.542;2023-10-13T12:09:20;7.20;;;1.58;;
19861;SDS011;10093;48.148;8.542;2023-10-13T12:11:49;5.68;;;1.60;;
19861;SDS011;10093;48.148;8.542;2023-10-13T12:14:19;5.88;;;1.60;;
19861;SDS011;10093;48.148;8.542;2023-10-13T12:17:05;4.55;;;1.90;;
19861;SDS011;10093;48.148;8.542;2023-10-13T12:19:35;4.25;;;1.42;;
19861;SDS011;10093;48.148;8.542;2023-10-13T12:22:03;6.63;;;2.38;;
19861;SDS011;10093;48.148;8.542;2023-10-13T12:24:33;7.95;;;1.60;;
19861;SDS011;10093;48.148;8.542;2023-10-13T12:27:04;4.65;;;2.15;;
19861;SDS011;10093;48.148;8.542;2023-10-13T12:29:50;6.18;;;1.67;;
19861;SDS011;10093;48.148;8.542;2023-10-13T12:32:17;5.68;;;1.63;;
19861;SDS011;10093;48.148;8.542;2023-10-13T12:34:56;6.70;;;1.77;;
19861;SDS011;10093;48.148;8.542;2023-10-13T12:37:41;3.88;;;1.23;;
19861;SDS011;10093;48.148;8.542;2023-10-13T12:40:07;7.35;;;1.73;;
19861;SDS011;10093;48.148;8.542;2023-10-13T12:43:02;3.83;;;1.70;;
19861;SDS011;10093;48.148;8.542;2023-10-13T12:45:47;5.95;;;1.63;;
19861;SDS011;10093;48.148;8.542;2023-10-13T12:48:32;3.40;;;1.27;;
19861;SDS011;10093;48.148;8.542;2023-10-13T12:54:00;4.90;;;1.48;;
19861;SDS011;10093;48.148;8.542;2023-10-13T12:56:45;6.18;;;1.55;;
19861;SDS011;10093;48.148;8.542;2023-10-13T12:59:10;7.38;;;1.30;;
19861;SDS011;10093;48.148;8.542;2023-10-13T13:01:40;7.35;;;1.85;;
19861;SDS011;10093;48.148;8.542;2023-10-13T13:04:07;7.70;;;1.58;;
19861;SDS011;10093;48.148;8.542;2023-10-13T13:06:46;8.48;;;1.70;;
19861;SDS011;10093;48.148;8.542;2023-10-13T13:09:12;6.80;;;1.98;;
19861;SDS011;10093;48.148;8.542;2023-10-13T13:11:38;7.05;;;1.83;;
19861;SDS011;10093;48.148;8.542;2023-10-13T13:14:06;7.10;;;1.67;;
19861;SDS011;10093;48.148;8.542;2023-10-13T13:16:35;5.60;;;2.20;;
19861;SDS011;10093;48.148;8.542;2023-10-13T13:19:04;5.93;;;1.65;;
19861;SDS011;10093;48.148;8.542;2023-10-13T13:21:38;8.15;;;2.10;;
19861;SDS011;10093;48.148;8.542;2023-10-13T13:24:04;7.03;;;1.77;;
19861;SDS011;10093;48.148;8.542;2023-10-13T13:26:36;10.75;;;1.95;;
19861;SDS011;10093;48.148;8.542;2023-10-13T13:29:05;12.35;;;2.17;;
19861;SDS011;10093;48.148;8.542;2023-10-13T13:31:34;4.95;;;2.17;;
19861;SDS011;10093;48.148;8.542;2023-10-13T13:34:06;5.80;;;1.60;;
19861;SDS011;10093;48.148;8.542;2023-10-13T13:36:34;8.13;;;1.95;;
19861;SDS011;10093;48.148;8.542;2023-10-13T13:39:00;5.07;;;2.08;;
19861;SDS011;10093;48.148;8.542;2023-10-13T13:41:26;10.52;;;2.25;;
19861;SDS011;10093;48.148;8.542;2023-10-13T13:43:52;10.70;;;2.20;;
19861;SDS011;10093;48.148;8.542;2023-10-13T13:46:22;9.75;;;1.80;;
19861;SDS011;10093;48.148;8.542;2023-10-13T13:48:58;7.30;;;2.13;;
19861;SDS011;10093;48.148;8.542;2023-10-13T13:51:29;6.00;;;1.60;;
19861;SDS011;10093;48.148;8.542;2023-10-13T13:53:57;6.45;;;1.85;;
19861;SDS011;10093;48.148;8.542;2023-10-13T13:56:23;5.88;;;1.85;;
19861;SDS011;10093;48.148;8.542;2023-10-13T13:58:51;9.65;;;2.25;;
19861;SDS011;10093;48.148;8.542;2023-10-13T14:01:18;4.07;;;2.15;;
19861;SDS011;10093;48.148;8.542;2023-10-13T14:03:45;7.00;;;1.77;;
19861;SDS011;10093;48.148;8.542;2023-10-13T14:08:43;5.20;;;2.00;;
19861;SDS011;10093;48.148;8.542;2023-10-13T14:11:10;7.10;;;2.13;;
19861;SDS011;10093;48.148;8.542;2023-10-13T14:13:38;7.10;;;2.03;;
19861;SDS011;10093;48.148;8.542;2023-10-13T14:16:20;5.18;;;1.95;;
19861;SDS011;10093;48.148;8.542;2023-10-13T14:18:48;6.00;;;2.25;;
19861;SDS011;10093;48.148;8.542;2023-10-13T14:21:15;10.52;;;2.05;;
19861;SDS011;10093;48.148;8.542;2023-10-13T14:23:45;6.45;;;1.52;;
19861;SDS011;10093;48.148;8.542;2023-10-13T14:26:11;8.57;;;2.10;;
19861;SDS011;10093;48.148;8.542;2023-10-13T14:28:38;4.18;;;2.00;;
19861;SDS011;10093;48.148;8.542;2023-10-13T14:31:15;8.38;;;1.73;;
19861;SDS011;10093;48.148;8.542;2023-10-13T14:33:41;8.75;;;2.30;;
19861;SDS011;10093;48.148;8.542;2023-10-13T14:36:09;11.05;;;2.40;;
19861;SDS011;10093;48.148;8.542;2023-10-13T14:38:35;4.25;;;2.20;;
19861;SDS011;10093;48.148;8.542;2023-10-13T14:41:01;10.38;;;2.55;;
19861;SDS011;10093;48.148;8.542;2023-10-13T14:43:26;8.55;;;2.03;;
19861;SDS011;10093;48.148;8.542;2023-10-13T14:45:53;7.45;;;2.22;;
19861;SDS011;10093;48.148;8.542;2023-10-13T14:48:18;8.77;;;2.08;;
19861;SDS011;10093;48.148;8.542;2023-10-13T14:50:44;7.55;;;1.98;;
19861;SDS011;10093;48.148;8.542;2023-10-13T14:53:10;10.00;;;1.90;;
19861;SDS011;10093;48.148;8.542;2023-10-13T14:55:36;6.25;;;1.98;;
19861;SDS011;10093;48.148;8.542;2023-10-13T14:58:05;5.18;;;2.17;;
19861;SDS011;10093;48.148;8.542;2023-10-13T15:00:33;6.80;;;2.00;;
19861;SDS011;10093;48.148;8.542;2023-10-13T15:02:59;10.70;;;2.20;;
19861;SDS011;10093;48.148;8.542;2023-10-13T15:05:26;5.35;;;2.00;;
19861;SDS011;10093;48.148;8.542;2023-10-13T15:07:55;8.10;;;2.50;;
19861;SDS011;10093;48.148;8.542;2023-10-13T15:10:21;5.45;;;2.08;;
19861;SDS011;10093;48.148;8.542;2023-10-13T15:12:49;14.30;;;2.63;;
19861;SDS011;10093;48.148;8.542;2023-10-13T15:15:15;8.23;;;2.35;;
19861;SDS011;10093;48.148;8.542;2023-10-13T15:17:44;9.02;;;2.10;;
19861;SDS011;10093;48.148;8.542;2023-10-13T15:20:10;10.35;;;2.20;;
19861;SDS011;10093;48.148;8.542;2023-10-13T15:22:41;13.55;;;2.33;;
19861;SDS011;10093;48.148;8.542;2023-10-13T15:25:08;7.35;;;2.30;;
19861;SDS011;10093;48.148;8.542;2023-10-13T15:27:52;5.30;;;2.13;;
19861;SDS011;10093;48.148;8.542;2023-10-13T15:30:21;9.90;;;2.28;;
19861;SDS011;10093;48.148;8.542;2023-10-13T15:32:51;11.50;;;2.35;;
19861;SDS011;10093;48.148;8.542;2023-10-13T15:35:18;7.22;;;1.70;;
19861;SDS011;10093;48.148;8.542;2023-10-13T15:37:44;6.53;;;2.20;;
19861;SDS011;10093;48.148;8.542;2023-10-13T15:40:13;7.35;;;2.10;;
19861;SDS011;10093;48.148;8.542;2023-10-13T15:42:42;5.95;;;2.08;;
19861;SDS011;10093;48.148;8.542;2023-10-13T15:45:10;9.32;;;2.63;;
19861;SDS011;10093;48.148;8.542;2023-10-13T15:47:45;5.57;;;2.22;;
19861;SDS011;10093;48.148;8.542;2023-10-13T15:50:14;5.38;;;2.10;;
19861;SDS011;10093;48.148;8.542;2023-10-13T15:52:42;10.40;;;2.53;;
19861;SDS011;10093;48.148;8.542;2023-10-13T15:55:12;7.18;;;1.90;;
19861;SDS011;10093;48.148;8.542;2023-10-13T15:57:38;6.45;;;2.30;;
19861;SDS011;10093;48.148;8.542;2023-10-13T16:00:05;6.32;;;2.05;;